Time;durP1;ratioP1;P1;durP2;ratioP2;P2;SDS_P1;SDS_P2;PMS_P1;PMS_P2;Temp;Humidity;BMP_temperature;BMP_pressure;BME280_temperature;BME280_humidity;BME280_pressure;Samples;Min_cycle;Max_cycle;Signal;HPM_P1;HPM_P2
2023/01/28 00:00:26;;;;;;;16.63;5.17;;;;;;;4.58;76.05;100436.00;4996141;28;20030;-69
2023/01/28 00:02:52;;;;;;;16.35;5.15;;;;;;;4.56;76.09;100437.69;4994401;28;20027;-68
2023/01/28 00:05:17;;;;;;;15.23;5.10;;;;;;;4.55;76.28;100433.34;5005099;28;20030;-69
2023/01/28 00:07:42;;;;;;;15.07;5.90;;;;;;;4.52;76.06;100433.25;4997186;28;20479;-69
2023/01/28 00:10:09;;;;;;;17.43;5.80;;;;;;;4.50;75.87;100434.06;4997242;28;20028;-69
2023/01/28 00:12:34;;;;;;;11.27;4.75;;;;;;;4.51;76.05;100434.09;4997327;28;20034;-68
2023/01/28 00:15:00;;;;;;;15.27;5.77;;;;;;;4.49;76.01;100438.41;4997255;28;20030;-68
2023/01/28 00:17:25;;;;;;;19.70;5.60;;;;;;;4.51;76.06;100435.81;4996921;28;20104;-69
2023/01/28 00:19:51;;;;;;;14.27;5.37;;;;;;;4.50;76.17;100434.97;4997492;28;20054;-68
2023/01/28 00:22:16;;;;;;;17.63;5.50;;;;;;;4.50;76.06;100418.41;5012257;28;20113;-69
2023/01/28 00:24:41;;;;;;;14.67;5.73;;;;;;;4.52;75.86;100417.63;5012075;28;20018;-69
2023/01/28 00:27:07;;;;;;;15.02;5.05;;;;;;;4.51;76.16;100418.47;4997232;28;20026;-69
2023/01/28 00:29:33;;;;;;;15.13;5.10;;;;;;;4.51;75.91;100421.06;4997062;28;20028;-69
2023/01/28 00:31:58;;;;;;;14.20;5.23;;;;;;;4.48;76.06;100426.22;4997032;28;20026;-68
2023/01/28 00:34:23;;;;;;;16.17;4.87;;;;;;;4.47;76.02;100421.84;4997196;28;20376;-68
2023/01/28 00:36:56;;;;;;;15.75;5.55;;;;;;;4.46;76.36;100425.28;4997169;28;20458;-68
2023/01/28 00:39:24;;;;;;;13.10;4.80;;;;;;;4.45;76.07;100420.91;4996649;28;20030;-68
2023/01/28 00:41:49;;;;;;;15.37;4.73;;;;;;;4.46;76.15;100420.06;4997185;28;20049;-69
2023/01/28 00:44:15;;;;;;;16.63;5.88;;;;;;;4.44;76.15;100416.53;4997145;28;20021;-69
2023/01/28 00:46:40;;;;;;;11.23;5.10;;;;;;;4.43;75.99;100406.94;4997030;28;20073;-68
2023/01/28 00:49:07;;;;;;;13.13;4.63;;;;;;;4.41;75.85;100412.16;4997014;28;20398;-69
2023/01/28 00:51:32;;;;;;;16.38;4.90;;;;;;;4.40;76.16;100412.09;4997091;28;20033;-68
2023/01/28 00:53:58;;;;;;;14.57;4.82;;;;;;;4.41;76.35;100403.44;4996864;28;20034;-68
2023/01/28 00:56:24;;;;;;;11.03;4.60;;;;;;;4.41;76.43;100414.75;4996876;28;20022;-69
2023/01/28 00:58:49;;;;;;;17.40;5.25;;;;;;;4.40;76.03;100412.09;4997129;28;20046;-69
2023/01/28 01:01:20;;;;;;;15.33;5.23;;;;;;;4.38;76.08;100408.56;4996765;28;20037;-69
2023/01/28 01:03:46;;;;;;;17.98;4.88;;;;;;;4.40;76.29;100406.88;5002571;28;20053;-69
2023/01/28 01:06:14;;;;;;;17.88;4.93;;;;;;;4.37;76.20;100397.28;5002761;28;20061;-68
2023/01/28 01:08:41;;;;;;;14.87;5.10;;;;;;;4.37;75.85;100396.38;5000422;28;20045;-68
2023/01/28 01:11:09;;;;;;;17.80;5.28;;;;;;;4.34;76.01;100394.59;5000477;28;20382;-69
2023/01/28 01:13:36;;;;;;;14.18;4.78;;;;;;;4.33;75.77;100394.56;5000775;28;20050;-68
2023/01/28 01:16:20;;;;;;;18.50;4.97;;;;;;;4.26;75.46;100394.41;5000412;28;20018;-68
2023/01/28 01:18:46;;;;;;;13.77;4.72;;;;;;;4.27;75.87;100398.78;5000610;28;20034;-68
2023/01/28 01:21:14;;;;;;;16.57;4.70;;;;;;;4.27;76.06;100398.78;5000373;28;20032;-69
2023/01/28 01:23:40;;;;;;;18.35;5.15;;;;;;;4.24;76.27;100401.31;5000477;28;20025;-68
2023/01/28 01:26:06;;;;;;;15.23;5.30;;;;;;;4.24;76.37;100405.66;5000364;28;21085;-69
2023/01/28 01:28:32;;;;;;;15.60;4.80;;;;;;;4.25;76.43;100413.50;5000446;28;20026;-68
2023/01/28 01:31:03;;;;;;;17.67;4.70;;;;;;;4.25;76.06;100413.50;4999993;28;20031;-68
2023/01/28 01:33:29;;;;;;;19.17;5.00;;;;;;;4.29;76.39;100425.78;5000276;28;20042;-68
2023/01/28 01:35:56;;;;;;;20.05;4.70;;;;;;;4.31;76.31;100424.09;5000187;28;20030;-68
2023/01/28 01:38:22;;;;;;;12.02;4.30;;;;;;;4.34;76.00;100422.41;4999999;28;20030;-69
2023/01/28 01:40:47;;;;;;;19.10;5.85;;;;;;;4.36;76.41;100431.13;5000025;28;20105;-68
2023/01/28 01:43:17;;;;;;;15.33;4.33;;;;;;;4.39;76.12;100428.59;4999914;28;20041;-69
2023/01/28 01:45:47;;;;;;;14.23;4.63;;;;;;;4.38;76.18;100419.91;4999955;28;20113;-68
2023/01/28 01:48:18;;;;;;;13.30;4.55;;;;;;;4.41;76.04;100424.28;5015150;28;20030;-68
2023/01/28 01:51:02;;;;;;;17.17;5.07;;;;;;;4.39;75.48;100426.88;5000125;28;20034;-68
2023/01/28 01:53:29;;;;;;;13.30;4.50;;;;;;;4.40;75.91;100432.97;4999493;28;20062;-69
2023/01/28 01:56:00;;;;;;;12.85;4.32;;;;;;;4.39;75.65;100429.50;4999997;28;20029;-69
2023/01/28 01:58:30;;;;;;;15.13;4.68;;;;;;;4.39;75.90;100425.97;5014896;28;20056;-69
2023/01/28 02:00:56;;;;;;;18.25;5.22;;;;;;;4.38;75.94;100425.13;4998452;28;20574;-69
2023/01/28 02:03:37;;;;;;;11.13;4.17;;;;;;;4.38;75.70;100424.22;5001837;28;20049;-68
2023/01/28 02:06:03;;;;;;;15.02;4.78;;;;;;;4.40;76.12;100425.13;5006396;28;20037;-69
2023/01/28 02:08:28;;;;;;;16.58;4.57;;;;;;;4.39;76.11;100428.59;4999335;28;20050;-68
2023/01/28 02:11:06;;;;;;;13.20;5.10;;;;;;;4.37;75.67;100428.56;4999463;28;20027;-68
2023/01/28 02:13:38;;;;;;;16.52;4.72;;;;;;;4.40;75.63;100428.63;4988130;28;20014;-68
2023/01/28 02:16:05;;;;;;;16.85;4.75;;;;;;;4.41;75.85;100434.72;4999596;28;20022;-68
2023/01/28 02:18:32;;;;;;;19.00;4.80;;;;;;;4.41;76.03;100429.50;4998843;28;20023;-69
2023/01/28 02:21:29;;;;;;;11.52;5.10;;;;;;;4.40;75.67;100430.34;4999295;28;20037;-68
2023/01/28 02:24:14;;;;;;;14.35;5.28;;;;;;;4.41;76.07;100434.72;4999192;28;20034;-68
2023/01/28 02:27:03;;;;;;;14.75;4.65;;;;;;;4.37;75.12;100427.69;4999275;28;20431;-68
2023/01/28 02:30:03;;;;;;;16.48;5.00;;;;;;;4.36;75.48;100432.03;4999217;28;20471;-69
2023/01/28 02:32:37;;;;;;;15.90;4.67;;;;;;;4.38;75.77;100439.88;4989659;28;20069;-69
2023/01/28 02:35:30;;;;;;;13.00;4.65;;;;;;;4.37;75.34;100448.53;4999152;28;20029;-68
2023/01/28 02:38:02;;;;;;;13.75;4.40;;;;;;;4.40;75.71;100453.81;4999148;28;20031;-68
2023/01/28 02:40:33;;;;;;;13.85;4.60;;;;;;;4.41;75.83;100450.38;4998793;28;20499;-68
2023/01/28 02:42:59;;;;;;;12.32;4.25;;;;;;;4.42;75.76;100447.81;4998966;28;20479;-68
2023/01/28 02:47:56;;;;;;;15.70;4.03;;;;;;;4.41;75.66;100442.53;4998845;28;20049;-69
2023/01/28 02:48:14;;;;;;;14.73;4.55;;;;;;;4.43;75.75;100443.47;4998868;28;20026;-69
2023/01/28 02:51:04;;;;;;;14.73;4.50;;;;;;;4.43;75.22;100448.66;4998635;28;20026;-68
2023/01/28 02:53:45;;;;;;;13.55;4.40;;;;;;;4.43;74.96;100453.88;4998582;28;20022;-69
2023/01/28 02:56:37;;;;;;;15.60;5.73;;;;;;;4.41;74.75;100453.88;4998867;28;20030;-68
2023/01/28 02:59:29;;;;;;;14.50;4.60;;;;;;;4.38;73.95;100451.19;4998775;28;20026;-68
2023/01/28 03:02:21;;;;;;;17.02;4.93;;;;;;;4.41;74.84;100445.16;4997359;28;20125;-69
2023/01/28 03:04:56;;;;;;;9.75;4.00;;;;;;;4.42;75.12;100437.38;5011427;28;20070;-69
2023/01/28 03:07:26;;;;;;;13.23;4.55;;;;;;;4.44;75.45;100446.13;4998816;28;20034;-69
2023/01/28 03:09:57;;;;;;;13.63;4.63;;;;;;;4.44;75.26;100442.59;4998113;28;20056;-68
2023/01/28 03:37:43;;;;;;;13.27;4.30;;;;;;;4.49;75.00;100466.19;4998162;28;20680;-69
2023/01/28 03:40:10;;;;;;;11.05;4.03;;;;;;;4.49;75.08;100474.03;4997538;28;20018;-69
2023/01/28 03:42:35;;;;;;;12.70;4.53;;;;;;;4.48;74.92;100470.56;4997884;28;20037;-69
2023/01/28 03:45:03;;;;;;;13.85;4.18;;;;;;;4.48;74.84;100467.03;4997420;28;20026;-68
2023/01/28 03:47:29;;;;;;;10.97;4.63;;;;;;;4.45;74.92;100463.53;4997865;28;20486;-68
2023/01/28 03:49:58;;;;;;;12.52;4.60;;;;;;;4.47;75.26;100466.19;4997839;28;20022;-68
2023/01/28 03:52:30;;;;;;;10.23;4.00;;;;;;;4.49;75.09;100467.09;4997897;28;20124;-69
2023/01/28 03:54:56;;;;;;;11.60;4.70;;;;;;;4.49;74.77;100459.28;4997333;28;20088;-68
2023/01/28 03:57:24;;;;;;;12.88;4.75;;;;;;;4.49;74.96;100467.09;4997997;28;20026;-69
2023/01/28 03:59:51;;;;;;;12.73;4.83;;;;;;;4.51;75.03;100468.00;4997600;28;20080;-69
2023/01/28 04:02:18;;;;;;;11.45;5.00;;;;;;;4.48;74.91;100467.94;4997584;28;20022;-68
2023/01/28 04:04:44;;;;;;;11.98;4.47;;;;;;;4.50;74.91;100454.91;5009181;28;20034;-68
2023/01/28 04:07:13;;;;;;;16.52;4.72;;;;;;;4.50;74.92;100468.84;4997577;28;20022;-69
2023/01/28 04:09:39;;;;;;;16.42;5.68;;;;;;;4.50;74.96;100466.25;4996821;28;20043;-68
2023/01/28 04:12:04;;;;;;;12.53;5.20;;;;;;;4.50;75.04;100467.97;4997760;28;20033;-68
2023/01/28 04:14:31;;;;;;;15.93;5.35;;;;;;;4.50;75.01;100462.75;4997407;28;20037;-68
2023/01/28 04:16:56;;;;;;;14.52;4.78;;;;;;;4.50;75.11;100465.34;4997414;28;20034;-68
2023/01/28 04:19:22;;;;;;;13.50;4.87;;;;;;;4.46;74.84;100469.59;4997244;28;20032;-69
2023/01/28 04:21:48;;;;;;;15.32;5.38;;;;;;;4.43;74.78;100467.81;4997641;28;20057;-69
2023/01/28 04:24:14;;;;;;;13.50;4.97;;;;;;;4.45;75.16;100473.94;4997006;28;20026;-69
2023/01/28 04:26:40;;;;;;;16.30;5.20;;;;;;;4.44;75.36;100476.50;4996032;28;20022;-69
2023/01/28 04:29:05;;;;;;;13.52;4.50;;;;;;;4.46;75.08;100474.81;4997163;28;20088;-69
2023/01/28 04:31:32;;;;;;;15.67;4.73;;;;;;;4.47;75.16;100470.50;4997101;28;20053;-69
2023/01/28 04:33:57;;;;;;;13.45;5.57;;;;;;;4.46;74.61;100477.44;4996995;28;20061;-69
2023/01/28 04:36:23;;;;;;;15.27;5.20;;;;;;;4.45;74.84;100473.06;5012409;28;20027;-69
2023/01/28 04:38:49;;;;;;;15.00;5.57;;;;;;;4.46;75.46;100474.81;4996891;28;20031;-68
2023/01/28 04:41:14;;;;;;;12.57;5.30;;;;;;;4.45;75.06;100473.06;4999304;28;20106;-68
2023/01/28 04:43:40;;;;;;;14.17;5.37;;;;;;;4.47;75.06;100480.94;5001006;28;20033;-68
2023/01/28 04:46:05;;;;;;;14.82;5.20;;;;;;;4.48;75.10;100486.19;5001255;28;20039;-68
2023/01/28 04:48:31;;;;;;;15.27;5.40;;;;;;;4.47;74.79;100492.25;5000965;28;20038;-68
2023/01/28 04:50:56;;;;;;;17.03;5.27;;;;;;;4.49;75.01;100494.88;5001200;28;20410;-69
2023/01/28 04:53:22;;;;;;;12.98;5.22;;;;;;;4.49;74.79;100495.78;5000805;28;20027;-68
2023/01/28 04:55:48;;;;;;;11.30;4.60;;;;;;;4.48;74.88;100494.03;5001217;28;20030;-68
2023/01/28 04:58:13;;;;;;;14.60;5.03;;;;;;;4.47;74.82;100494.88;5000934;28;20038;-69
2023/01/28 05:00:39;;;;;;;14.10;5.40;;;;;;;4.46;75.03;100495.69;5001027;28;20026;-68
2023/01/28 05:03:04;;;;;;;14.33;5.00;;;;;;;4.44;74.49;100493.06;5000779;28;20036;-69
2023/01/28 05:05:29;;;;;;;13.60;4.90;;;;;;;4.44;74.64;100502.59;5011187;28;20518;-69
2023/01/28 05:07:56;;;;;;;13.13;5.20;;;;;;;4.43;74.65;100506.94;5000601;28;20470;-68
2023/01/28 05:10:23;;;;;;;13.15;4.95;;;;;;;4.43;74.85;100506.03;5000888;28;20060;-68
2023/01/28 05:12:48;;;;;;;15.15;4.95;;;;;;;4.44;74.93;100515.63;5000695;28;20505;-69
2023/01/28 05:15:18;;;;;;;13.40;5.50;;;;;;;4.44;74.42;100508.69;5015796;28;20454;-69
2023/01/28 05:17:44;;;;;;;11.50;4.55;;;;;;;4.44;74.81;100515.63;5000512;28;20182;-68
2023/01/28 05:20:11;;;;;;;11.03;5.43;;;;;;;4.40;74.41;100516.41;5000700;28;20079;-68
2023/01/28 05:22:37;;;;;;;12.07;5.20;;;;;;;4.40;74.74;100517.28;5000650;28;20293;-68
2023/01/28 05:25:03;;;;;;;12.07;5.47;;;;;;;4.41;74.73;100520.75;5015412;28;20030;-68
2023/01/28 05:27:29;;;;;;;14.38;5.50;;;;;;;4.42;74.86;100530.34;5000379;28;20080;-69
2023/01/28 05:29:55;;;;;;;13.37;4.83;;;;;;;4.43;74.72;100532.13;5000403;28;20030;-68
2023/01/28 05:32:20;;;;;;;14.80;5.10;;;;;;;4.43;74.89;100524.28;5000441;28;20034;-68
2023/01/28 05:34:46;;;;;;;13.37;5.80;;;;;;;4.44;74.91;100528.66;5000467;28;20034;-68
2023/01/28 05:37:11;;;;;;;14.47;5.10;;;;;;;4.40;73.73;100534.66;5000348;28;20022;-68
2023/01/28 05:39:36;;;;;;;13.27;5.05;;;;;;;4.43;74.58;100537.31;4999820;28;20026;-68
2023/01/28 05:42:02;;;;;;;14.27;5.17;;;;;;;4.41;74.48;100536.41;5000292;28;20053;-68
2023/01/28 05:44:27;;;;;;;12.90;4.70;;;;;;;4.42;74.53;100535.56;4998840;28;20078;-68
2023/01/28 05:46:53;;;;;;;13.47;5.53;;;;;;;4.40;74.54;100542.47;4998986;28;20380;-68
2023/01/28 05:49:18;;;;;;;16.80;5.80;;;;;;;4.37;74.23;100537.19;5000167;28;20022;-68
2023/01/28 05:51:43;;;;;;;14.52;4.80;;;;;;;4.39;74.45;100541.59;4999055;28;20030;-68
2023/01/28 05:54:09;;;;;;;18.33;5.80;;;;;;;4.37;74.70;100535.47;4999887;28;20035;-69
2023/01/28 05:56:35;;;;;;;11.37;5.10;;;;;;;4.37;74.38;100539.78;5000147;28;20022;-69
2023/01/28 05:59:02;;;;;;;12.80;4.83;;;;;;;4.36;74.80;100543.25;4999991;28;20293;-68
2023/01/28 06:01:27;;;;;;;15.80;5.30;;;;;;;4.36;74.60;100544.13;4999748;28;20084;-69
2023/01/28 06:03:53;;;;;;;13.03;5.10;;;;;;;4.36;74.88;100538.03;5006422;28;20032;-69
2023/01/28 06:06:18;;;;;;;14.43;5.17;;;;;;;4.34;74.25;100544.94;5003685;28;20018;-68
2023/01/28 06:08:44;;;;;;;14.57;5.30;;;;;;;4.35;74.56;100549.28;4999509;28;20050;-68
2023/01/28 06:11:09;;;;;;;13.30;5.43;;;;;;;4.35;74.96;100544.97;4999605;28;20582;-69
2023/01/28 06:13:34;;;;;;;15.97;5.47;;;;;;;4.35;74.75;100549.28;4999901;28;20495;-69
2023/01/28 06:16:00;;;;;;;13.50;5.30;;;;;;;4.34;74.38;100552.75;4999523;28;20014;-69
2023/01/28 06:18:25;;;;;;;11.23;5.13;;;;;;;4.35;74.45;100554.50;4998356;28;20046;-69
2023/01/28 06:20:51;;;;;;;13.50;5.63;;;;;;;4.35;74.75;100554.50;4999688;28;20038;-68
2023/01/28 06:23:16;;;;;;;14.97;5.20;;;;;;;4.36;74.58;100561.50;4999208;28;20097;-68
2023/01/28 06:25:42;;;;;;;16.73;5.43;;;;;;;4.36;74.92;100562.38;4999530;28;20032;-69
2023/01/28 06:28:08;;;;;;;12.03;5.23;;;;;;;4.37;74.34;100566.75;5014516;28;20340;-68
2023/01/28 06:30:34;;;;;;;14.10;5.22;;;;;;;4.38;74.47;100568.53;4999245;28;20101;-68
2023/01/28 06:32:59;;;;;;;13.63;5.67;;;;;;;4.40;74.35;100568.53;5009487;28;20113;-69
2023/01/28 06:35:24;;;;;;;12.20;5.17;;;;;;;4.38;74.53;100575.44;4999140;28;20029;-69
2023/01/28 06:37:52;;;;;;;13.20;5.30;;;;;;;4.38;74.50;100572.84;4999338;28;20030;-69
2023/01/28 06:40:18;;;;;;;15.07;5.70;;;;;;;4.37;74.62;100573.69;4999020;28;20037;-68
2023/01/28 06:42:44;;;;;;;15.85;5.85;;;;;;;4.35;74.71;100572.75;4999308;28;20030;-68
2023/01/28 06:45:09;;;;;;;14.98;5.20;;;;;;;4.36;74.78;100577.13;4998913;28;20393;-68
2023/01/28 06:47:37;;;;;;;16.57;5.47;;;;;;;4.36;74.41;100567.59;4998780;28;20056;-68
2023/01/28 06:50:03;;;;;;;12.65;5.50;;;;;;;4.38;74.64;100575.44;4999006;28;20029;-69
2023/01/28 06:52:29;;;;;;;15.53;5.53;;;;;;;4.33;74.38;100577.06;4999174;28;20034;-68
2023/01/28 06:54:54;;;;;;;14.68;5.88;;;;;;;4.32;74.63;100586.59;4998597;28;20030;-68
2023/01/28 06:57:19;;;;;;;15.27;5.70;;;;;;;4.35;74.99;100585.81;4998893;28;20105;-68
2023/01/28 06:59:45;;;;;;;15.50;5.87;;;;;;;4.33;74.56;100585.75;4998822;28;20030;-68
2023/01/28 07:02:10;;;;;;;14.70;6.13;;;;;;;4.34;74.41;100586.66;4998809;28;20028;-68
2023/01/28 07:04:36;;;;;;;16.33;6.07;;;;;;;4.31;74.37;100590.03;5009207;28;20632;-68
2023/01/28 07:07:01;;;;;;;15.00;5.93;;;;;;;4.31;74.94;100587.44;4998779;28;20402;-69
2023/01/28 07:09:27;;;;;;;14.00;5.70;;;;;;;4.32;74.79;100594.41;4998205;28;20050;-68
2023/01/28 07:11:52;;;;;;;17.85;6.53;;;;;;;4.29;74.33;100592.63;4998815;28;20034;-68
2023/01/28 07:14:18;;;;;;;13.23;5.63;;;;;;;4.31;74.59;100593.53;4998634;28;20499;-68
2023/01/28 07:16:43;;;;;;;15.93;5.87;;;;;;;4.31;74.69;100596.16;4998553;28;20034;-68
2023/01/28 07:19:08;;;;;;;15.77;6.53;;;;;;;4.30;74.58;100597.00;4998244;28;20874;-68
2023/01/28 07:21:34;;;;;;;14.10;5.93;;;;;;;4.31;74.74;100609.19;4998511;28;20030;-69
2023/01/28 07:23:59;;;;;;;15.23;5.53;;;;;;;4.31;74.59;100609.19;4998081;28;20022;-69
2023/01/28 07:26:25;;;;;;;15.23;5.80;;;;;;;4.30;74.94;100615.25;4998307;28;20297;-68
2023/01/28 07:28:50;;;;;;;13.73;5.50;;;;;;;4.29;75.05;100616.09;4998240;28;20022;-68
2023/01/28 07:31:15;;;;;;;13.83;5.90;;;;;;;4.31;74.88;100621.31;5012991;28;20041;-68
2023/01/28 07:33:41;;;;;;;16.70;6.30;;;;;;;4.31;75.14;100622.22;4998013;28;20495;-69
2023/01/28 07:36:06;;;;;;;17.20;6.28;;;;;;;4.34;75.06;100625.75;4998385;28;20026;-69
2023/01/28 07:38:32;;;;;;;14.63;6.13;;;;;;;4.35;74.67;100631.03;4996925;28;20026;-68
2023/01/28 07:40:58;;;;;;;13.80;5.93;;;;;;;4.38;74.91;100633.72;4998081;28;20022;-69
2023/01/28 07:43:23;;;;;;;15.03;6.17;;;;;;;4.39;74.71;100645.00;4997909;28;20085;-68
2023/01/28 07:45:49;;;;;;;19.10;6.90;;;;;;;4.39;74.62;100645.91;4996679;28;20031;-69
2023/01/28 07:48:15;;;;;;;15.00;6.80;;;;;;;4.39;74.45;100650.22;4998027;28;20048;-69
2023/01/28 07:50:40;;;;;;;15.18;7.38;;;;;;;4.42;74.61;100655.50;4997870;28;20025;-69
2023/01/28 07:53:09;;;;;;;16.13;6.65;;;;;;;4.44;74.88;100661.66;4997662;28;20033;-69
2023/01/28 07:55:35;;;;;;;14.70;6.57;;;;;;;4.45;74.72;100659.09;4998056;28;20077;-68
2023/01/28 07:58:02;;;;;;;15.35;7.13;;;;;;;4.42;74.55;100660.72;4997806;28;20454;-69
2023/01/28 08:00:30;;;;;;;17.05;6.75;;;;;;;4.43;74.51;100659.88;4997783;28;20033;-69
2023/01/28 08:03:04;;;;;;;16.83;6.63;;;;;;;4.43;74.47;100657.28;4997538;28;20117;-69
2023/01/28 08:05:40;;;;;;;18.43;6.00;;;;;;;4.44;74.00;100661.66;5008803;28;20065;-69
2023/01/28 08:08:07;;;;;;;17.40;6.88;;;;;;;4.45;74.89;100663.41;4997442;28;20530;-68
2023/01/28 08:10:32;;;;;;;17.13;6.72;;;;;;;4.45;74.68;100668.63;4997842;28;20049;-69
2023/01/28 08:12:58;;;;;;;14.60;6.77;;;;;;;4.48;74.81;100676.56;4997796;28;20098;-69
2023/01/28 08:15:24;;;;;;;17.92;7.72;;;;;;;4.50;74.30;100668.78;4997018;28;20022;-69
2023/01/28 08:17:49;;;;;;;19.10;7.43;;;;;;;4.51;74.92;100674.03;5000324;28;20033;-69
2023/01/28 08:20:15;;;;;;;18.17;6.80;;;;;;;4.52;74.57;100665.38;4996251;28;20027;-69
2023/01/28 08:22:41;;;;;;;20.77;8.60;;;;;;;4.54;74.79;100674.13;4997274;28;20455;-69
2023/01/28 08:25:07;;;;;;;18.30;7.50;;;;;;;4.59;74.68;100682.06;4997366;28;20509;-68
2023/01/28 08:27:32;;;;;;;19.07;7.30;;;;;;;4.62;74.58;100673.44;4997086;28;20018;-69
2023/01/28 08:29:57;;;;;;;19.90;7.63;;;;;;;4.63;74.59;100681.31;4997265;28;20022;-68
2023/01/28 08:32:23;;;;;;;17.03;7.33;;;;;;;4.67;74.52;100684.88;4997307;28;20056;-68
2023/01/28 08:34:48;;;;;;;17.87;7.30;;;;;;;4.67;74.37;100680.56;4997476;28;20034;-68
2023/01/28 08:37:13;;;;;;;20.37;7.73;;;;;;;4.70;74.50;100687.56;4997324;28;20129;-69
2023/01/28 08:39:39;;;;;;;17.40;7.03;;;;;;;4.72;74.53;100685.91;5010380;28;20026;-68
2023/01/28 08:42:05;;;;;;;14.93;6.53;;;;;;;4.74;74.24;100690.28;4997180;28;20018;-69
2023/01/28 08:44:31;;;;;;;19.90;6.68;;;;;;;4.73;74.11;100690.28;4997383;28;20018;-69
2023/01/28 08:46:57;;;;;;;16.93;7.00;;;;;;;4.73;74.79;100703.31;4990702;28;20036;-68
2023/01/28 08:49:22;;;;;;;18.33;7.70;;;;;;;4.72;74.46;100696.34;4997754;28;20182;-68
2023/01/28 08:51:48;;;;;;;17.65;7.68;;;;;;;4.72;74.28;100693.72;4997227;28;20038;-69
2023/01/28 08:54:13;;;;;;;19.57;7.23;;;;;;;4.73;74.42;100695.50;4996950;28;20032;-68
2023/01/28 08:56:41;;;;;;;18.07;6.80;;;;;;;4.74;74.38;100694.66;4997157;28;20029;-68
2023/01/28 08:59:07;;;;;;;20.33;6.88;;;;;;;4.74;74.37;100699.88;4997055;28;20031;-68
2023/01/28 09:01:33;;;;;;;15.57;6.78;;;;;;;4.75;74.66;100701.63;4996590;28;20530;-69
2023/01/28 09:03:58;;;;;;;14.63;6.53;;;;;;;4.72;74.32;100697.19;5004218;28;20478;-68
2023/01/28 09:06:23;;;;;;;14.33;6.00;;;;;;;4.72;74.29;100701.56;5000472;28;20022;-68
2023/01/28 09:08:49;;;;;;;16.17;6.70;;;;;;;4.73;73.98;100698.97;4995944;28;20526;-69
2023/01/28 09:11:14;;;;;;;14.70;5.85;;;;;;;4.74;74.17;100705.94;4993976;28;20384;-68
2023/01/28 09:13:40;;;;;;;18.60;7.57;;;;;;;4.76;74.10;100705.09;4995086;28;20030;-68
2023/01/28 09:16:06;;;;;;;16.73;6.53;;;;;;;4.77;74.13;100713.00;4990267;28;20023;-68
2023/01/28 09:18:31;;;;;;;19.08;6.72;;;;;;;4.78;74.30;100709.53;4991503;28;20027;-70
2023/01/28 09:20:56;;;;;;;19.37;7.37;;;;;;;4.83;74.25;100710.53;4996769;28;20035;-69
2023/01/28 09:23:22;;;;;;;16.13;6.50;;;;;;;4.88;74.35;100724.59;4996517;28;20082;-69
2023/01/28 09:25:47;;;;;;;19.27;6.77;;;;;;;4.93;74.34;100726.44;4996401;28;20022;-69
2023/01/28 09:28:13;;;;;;;17.77;7.25;;;;;;;4.95;74.16;100735.22;4994677;28;20117;-70
2023/01/28 09:30:38;;;;;;;17.70;7.13;;;;;;;4.99;74.16;100731.84;4996461;28;20153;-68
2023/01/28 09:33:04;;;;;;;19.13;7.10;;;;;;;5.01;74.05;100730.16;4995344;28;20038;-68
2023/01/28 09:35:30;;;;;;;18.13;6.43;;;;;;;5.02;74.15;100734.53;5000408;28;20080;-68
2023/01/28 09:37:57;;;;;;;16.50;6.87;;;;;;;5.00;74.07;100734.47;4996924;28;20035;-69
2023/01/28 09:40:29;;;;;;;15.63;6.80;;;;;;;4.99;73.80;100732.69;4998964;28;20049;-72
2023/01/28 09:43:02;;;;;;;15.90;6.97;;;;;;;5.03;74.27;100738.91;5000238;28;20541;-69
2023/01/28 09:45:40;;;;;;;19.85;6.47;;;;;;;5.02;73.19;100734.53;5000047;28;20030;-68
2023/01/28 09:48:13;;;;;;;17.13;6.82;;;;;;;5.03;73.73;100728.44;5000156;28;20117;-69
2023/01/28 09:50:43;;;;;;;19.40;7.50;;;;;;;5.04;73.43;100743.28;5014784;28;20149;-68
2023/01/28 09:53:27;;;;;;;19.00;7.00;;;;;;;5.02;73.10;100735.38;4998818;28;20026;-70
2023/01/28 09:56:25;;;;;;;17.30;7.32;;;;;;;5.02;73.27;100738.00;5000080;28;20034;-70
2023/01/28 09:58:51;;;;;;;17.35;6.75;;;;;;;5.07;73.83;100739.88;4990136;28;20042;-73
2023/01/28 10:01:56;;;;;;;17.70;6.40;;;;;;;5.04;72.85;100740.66;4999869;28;20110;-73
2023/01/28 10:04:48;;;;;;;13.60;5.95;;;;;;;5.08;74.07;100736.41;5001913;28;20029;-72
2023/01/28 10:07:26;;;;;;;16.90;6.90;;;;;;;5.09;74.02;100740.78;5007795;28;20038;-73
2023/01/28 10:10:10;;;;;;;15.93;5.97;;;;;;;5.08;73.18;100737.28;4999498;28;20069;-73
2023/01/28 10:12:46;;;;;;;16.50;7.20;;;;;;;5.08;72.93;100737.28;5014661;28;20030;-73
2023/01/28 10:15:26;;;;;;;15.07;6.93;;;;;;;5.10;72.74;100734.72;4999560;28;20478;-73
2023/01/28 10:17:55;;;;;;;15.57;7.00;;;;;;;5.14;73.75;100733.94;4999368;28;20054;-73
2023/01/28 10:20:29;;;;;;;15.30;6.70;;;;;;;5.16;73.78;100735.75;4999352;28;20081;-73
2023/01/28 10:23:07;;;;;;;15.15;6.70;;;;;;;5.22;73.22;100731.53;4999061;28;20041;-73
2023/01/28 10:25:33;;;;;;;25.77;9.77;;;;;;;5.31;73.87;100729.16;4999158;28;20038;-72
2023/01/28 10:28:01;;;;;;;20.60;7.30;;;;;;;5.36;73.73;100737.97;4998972;28;20022;-73
2023/01/28 10:30:30;;;;;;;17.58;7.28;;;;;;;5.42;73.57;100726.81;4998113;28;20442;-73
2023/01/28 10:33:01;;;;;;;16.70;7.68;;;;;;;5.49;73.31;100733.06;4998692;28;20490;-73
2023/01/28 10:35:26;;;;;;;15.07;6.00;;;;;;;5.56;72.99;100734.97;4998971;28;20113;-73
2023/01/28 10:38:01;;;;;;;14.97;6.53;;;;;;;5.56;71.90;100735.88;4998150;28;20085;-73
2023/01/28 10:40:27;;;;;;;13.40;6.60;;;;;;;5.59;72.61;100727.22;4999004;28;20126;-73
2023/01/28 10:42:53;;;;;;;15.00;6.68;;;;;;;5.65;72.88;100735.19;4999093;28;20045;-73
2023/01/28 10:45:28;;;;;;;15.13;6.60;;;;;;;5.68;71.56;100730.06;4998216;28;20030;-73
2023/01/28 10:48:23;;;;;;;15.73;6.70;;;;;;;5.74;71.14;100724.97;4998864;28;20034;-75
2023/01/28 10:50:55;;;;;;;13.23;6.32;;;;;;;5.84;72.31;100730.41;4999000;28;20039;-73
2023/01/28 10:53:36;;;;;;;14.85;6.53;;;;;;;5.84;71.36;100722.56;4998586;28;20085;-73
2023/01/28 10:56:05;;;;;;;14.53;6.60;;;;;;;5.90;72.57;100720.06;4998948;28;20041;-73
2023/01/28 10:58:34;;;;;;;12.55;5.65;;;;;;;5.90;72.73;100725.28;4997346;28;20031;-73
2023/01/28 11:01:03;;;;;;;12.15;5.63;;;;;;;5.89;72.68;100721.81;4995568;28;20654;-74
2023/01/28 11:03:34;;;;;;;17.50;6.35;;;;;;;5.92;72.61;100726.25;4999433;28;20100;-73
2023/01/28 11:06:00;;;;;;;14.75;7.22;;;;;;;5.95;72.00;100731.53;5003724;28;20042;-73
2023/01/28 11:08:28;;;;;;;16.93;7.10;;;;;;;5.95;72.05;100728.91;4996043;28;20515;-73
2023/01/28 11:10:55;;;;;;;15.13;6.53;;;;;;;5.99;72.45;100725.53;4996461;28;20083;-73
2023/01/28 11:13:22;;;;;;;23.38;7.38;;;;;;;6.01;72.27;100725.56;4982800;28;20031;-73
2023/01/28 11:15:51;;;;;;;15.32;6.45;;;;;;;6.01;71.80;100726.47;4997770;28;20037;-73
2023/01/28 11:18:45;;;;;;;14.07;6.32;;;;;;;5.98;70.87;100721.13;4998519;28;20121;-73
2023/01/28 11:21:28;;;;;;;15.67;6.73;;;;;;;6.02;70.80;100717.78;4996961;28;20387;-73
2023/01/28 11:24:13;;;;;;;17.40;7.45;;;;;;;6.11;71.05;100713.59;4997950;28;20476;-74
2023/01/28 11:26:44;;;;;;;17.35;7.25;;;;;;;6.15;71.77;100710.22;4998112;28;20030;-73
2023/01/28 11:29:30;;;;;;;15.65;6.70;;;;;;;6.12;69.89;100703.16;4997917;28;20740;-74
2023/01/28 11:31:57;;;;;;;16.65;7.25;;;;;;;6.22;71.77;100700.75;4998106;28;20034;-73
2023/01/28 11:34:29;;;;;;;16.37;7.10;;;;;;;6.24;71.77;100704.25;4997930;28;20407;-73
2023/01/28 11:37:11;;;;;;;16.52;7.15;;;;;;;6.25;70.51;100701.69;4997917;28;20074;-74
2023/01/28 11:39:36;;;;;;;15.27;6.53;;;;;;;6.30;71.47;100700.03;4997509;28;20314;-73
2023/01/28 11:42:19;;;;;;;14.00;6.47;;;;;;;6.27;70.32;100699.09;4997737;28;20034;-74
2023/01/28 11:44:49;;;;;;;17.33;7.10;;;;;;;6.30;71.93;100701.78;4997830;28;20390;-73
2023/01/28 11:47:32;;;;;;;21.45;7.68;;;;;;;6.32;71.85;100703.56;4997487;28;20380;-73
2023/01/28 11:50:14;;;;;;;14.23;6.47;;;;;;;6.31;70.03;100688.72;4995583;28;20033;-74
2023/01/28 11:52:59;;;;;;;17.97;7.63;;;;;;;6.26;69.44;100698.22;4997476;28;20553;-73
2023/01/28 11:55:44;;;;;;;16.90;7.55;;;;;;;6.20;69.67;100692.88;4997671;28;20029;-73
2023/01/28 11:58:10;;;;;;;15.38;7.03;;;;;;;6.24;71.99;100694.69;4997419;28;20093;-74